sensor_id;sensor_type;location;lat;lon;timestamp;pressure;altitude;pressure_sealevel;temperature;humidity
15634;BME280;14654;48.898;8.308;2023-05-10T00:00:50;99702.44;;;14.37;100.00
15634;BME280;14654;48.898;8.308;2023-05-10T00:03:15;99699.81;;;14.37;100.00
15634;BME280;14654;48.898;8.308;2023-05-10T00:05:41;99706.84;;;14.35;100.00
15634;BME280;14654;48.898;8.308;2023-05-10T00:08:06;99706.84;;;14.35;100.00
15634;BME280;14654;48.898;8.308;2023-05-10T00:10:32;99707.72;;;14.33;100.00
15634;BME280;14654;48.898;8.308;2023-05-10T00:12:57;99708.63;;;14.32;100.00
15634;BME280;14654;48.898;8.308;2023-05-10T00:15:22;99702.53;;;14.33;100.00
15634;BME280;14654;48.898;8.308;2023-05-10T00:17:47;99709.44;;;14.35;100.00
15634;BME280;14654;48.898;8.308;2023-05-10T00:20:13;99706.91;;;14.33;100.00
15634;BME280;14654;48.898;8.308;2023-05-10T00:22:38;99710.41;;;14.32;100.00
15634;BME280;14654;48.898;8.308;2023-05-10T00:25:04;99704.31;;;14.31;100.00
15634;BME280;14654;48.898;8.308;2023-05-10T00:27:29;99706.03;;;14.32;100.00
15634;BME280;14654;48.898;8.308;2023-05-10T00:29:54;99712.13;;;14.31;100.00
15634;BME280;14654;48.898;8.308;2023-05-10T00:32:20;99707.78;;;14.32;100.00
15634;BME280;14654;48.898;8.308;2023-05-10T00:34:45;99706.94;;;14.31;100.00
15634;BME280;14654;48.898;8.308;2023-05-10T00:37:10;99715.59;;;14.32;100.00
15634;BME280;14654;48.898;8.308;2023-05-10T00:39:36;99722.53;;;14.31;100.00
15634;BME280;14654;48.898;8.308;2023-05-10T00:42:01;99728.63;;;14.32;100.00
15634;BME280;14654;48.898;8.308;2023-05-10T00:44:26;99725.22;;;14.30;100.00
15634;BME280;14654;48.898;8.308;2023-05-10T00:46:52;99721.72;;;14.31;100.00
15634;BME280;14654;48.898;8.308;2023-05-10T00:49:18;99714.72;;;14.31;100.00
15634;BME280;14654;48.898;8.308;2023-05-10T00:51:44;99720.00;;;14.30;100.00
15634;BME280;14654;48.898;8.308;2023-05-10T00:54:14;99716.53;;;14.29;100.00
15634;BME280;14654;48.898;8.308;2023-05-10T00:56:40;99717.47;;;14.28;100.00
15634;BME280;14654;48.898;8.308;2023-05-10T00:59:09;99718.38;;;14.27;100.00
15634;BME280;14654;48.898;8.308;2023-05-10T01:01:35;99717.50;;;14.27;100.00
15634;BME280;14654;48.898;8.308;2023-05-10T01:04:01;99708.88;;;14.25;100.00
15634;BME280;14654;48.898;8.308;2023-05-10T01:06:28;99715.84;;;14.24;100.00
15634;BME280;14654;48.898;8.308;2023-05-10T01:08:53;99715.00;;;14.24;100.00
15634;BME280;14654;48.898;8.308;2023-05-10T01:11:18;99709.78;;;14.24;100.00
15634;BME280;14654;48.898;8.308;2023-05-10T01:13:47;99712.38;;;14.24;100.00
15634;BME280;14654;48.898;8.308;2023-05-10T01:16:17;99718.63;;;14.20;100.00
15634;BME280;14654;48.898;8.308;2023-05-10T01:18:43;99716.06;;;14.18;100.00
15634;BME280;14654;48.898;8.308;2023-05-10T01:21:42;99722.06;;;14.20;100.00
15634;BME280;14654;48.898;8.308;2023-05-10T01:37:59;99706.78;;;14.09;100.00
15634;BME280;14654;48.898;8.308;2023-05-10T01:40:33;99702.56;;;14.07;100.00
15634;BME280;14654;48.898;8.308;2023-05-10T01:43:04;99708.66;;;14.06;100.00
15634;BME280;14654;48.898;8.308;2023-05-10T01:46:05;99708.75;;;14.02;100.00
15634;BME280;14654;48.898;8.308;2023-05-10T01:48:34;99714.03;;;13.99;100.00
15634;BME280;14654;48.898;8.308;2023-05-10T01:50:59;99718.31;;;14.02;100.00
15634;BME280;14654;48.898;8.308;2023-05-10T01:53:25;99712.25;;;14.01;100.00
15634;BME280;14654;48.898;8.308;2023-05-10T01:55:53;99709.63;;;14.03;100.00
15634;BME280;14654;48.898;8.308;2023-05-10T01:58:23;99708.75;;;14.02;100.00
15634;BME280;14654;48.898;8.308;2023-05-10T02:00:53;99723.47;;;14.03;100.00
15634;BME280;14654;48.898;8.308;2023-05-10T02:03:22;99716.47;;;14.06;100.00
15634;BME280;14654;48.898;8.308;2023-05-10T02:05:49;99719.06;;;14.06;100.00
15634;BME280;14654;48.898;8.308;2023-05-10T02:08:17;99717.34;;;14.05;100.00
15634;BME280;14654;48.898;8.308;2023-05-10T02:10:45;99719.06;;;14.06;100.00
15634;BME280;14654;48.898;8.308;2023-05-10T02:13:11;99725.97;;;14.07;100.00
15634;BME280;14654;48.898;8.308;2023-05-10T02:15:37;99717.34;;;14.05;100.00
15634;BME280;14654;48.898;8.308;2023-05-10T02:18:05;99725.13;;;14.06;100.00
15634;BME280;14654;48.898;8.308;2023-05-10T02:20:31;99722.47;;;14.08;100.00
15634;BME280;14654;48.898;8.308;2023-05-10T02:22:58;99731.09;;;14.08;100.00
15634;BME280;14654;48.898;8.308;2023-05-10T02:25:24;99726.81;;;14.07;100.00
15634;BME280;14654;48.898;8.308;2023-05-10T02:27:52;99729.38;;;14.09;100.00
15634;BME280;14654;48.898;8.308;2023-05-10T02:30:19;99732.97;;;14.05;100.00
15634;BME280;14654;48.898;8.308;2023-05-10T02:32:46;99733.03;;;14.03;100.00
15634;BME280;14654;48.898;8.308;2023-05-10T02:35:12;99730.47;;;14.01;100.00
15634;BME280;14654;48.898;8.308;2023-05-10T02:37:38;99735.78;;;13.98;100.00
15634;BME280;14654;48.898;8.308;2023-05-10T02:40:05;99733.28;;;13.95;100.00
15634;BME280;14654;48.898;8.308;2023-05-10T02:42:34;99731.72;;;13.90;100.00
15634;BME280;14654;48.898;8.308;2023-05-10T02:45:02;99732.81;;;13.82;100.00
15634;BME280;14654;48.898;8.308;2023-05-10T02:47:30;99739.06;;;13.77;100.00
15634;BME280;14654;48.898;8.308;2023-05-10T02:49:56;99733.13;;;13.71;100.00
15634;BME280;14654;48.898;8.308;2023-05-10T02:52:24;99732.47;;;13.65;100.00
15634;BME280;14654;48.898;8.308;2023-05-10T02:54:54;99731.78;;;13.60;100.00
15634;BME280;14654;48.898;8.308;2023-05-10T02:57:26;99729.25;;;13.56;100.00
15634;BME280;14654;48.898;8.308;2023-05-10T02:59:52;99731.19;;;13.50;100.00
15634;BME280;14654;48.898;8.308;2023-05-10T03:02:18;99731.28;;;13.47;100.00
15634;BME280;14654;48.898;8.308;2023-05-10T03:04:43;99730.47;;;13.45;100.00
15634;BME280;14654;48.898;8.308;2023-05-10T03:07:09;99740.13;;;13.41;100.00
15634;BME280;14654;48.898;8.308;2023-05-10T03:09:34;99743.63;;;13.38;100.00
15634;BME280;14654;48.898;8.308;2023-05-10T03:12:05;99747.97;;;13.38;100.00
15634;BME280;14654;48.898;8.308;2023-05-10T03:15:00;99747.13;;;13.37;100.00
15634;BME280;14654;48.898;8.308;2023-05-10T03:17:37;99744.47;;;13.39;100.00
15634;BME280;14654;48.898;8.308;2023-05-10T03:20:09;99746.13;;;13.43;100.00
15634;BME280;14654;48.898;8.308;2023-05-10T03:22:45;99750.50;;;13.41;100.00
15634;BME280;14654;48.898;8.308;2023-05-10T03:25:12;99752.25;;;13.40;100.00
15634;BME280;14654;48.898;8.308;2023-05-10T03:27:40;99753.16;;;13.38;100.00
15634;BME280;14654;48.898;8.308;2023-05-10T03:30:08;99760.16;;;13.36;100.00
15634;BME280;14654;48.898;8.308;2023-05-10T03:32:35;99766.22;;;13.36;100.00
15634;BME280;14654;48.898;8.308;2023-05-10T03:35:09;99763.56;;;13.38;100.00
15634;BME280;14654;48.898;8.308;2023-05-10T03:37:35;99766.09;;;13.39;100.00
15634;BME280;14654;48.898;8.308;2023-05-10T03:40:01;99766.94;;;13.41;100.00
15634;BME280;14654;48.898;8.308;2023-05-10T03:42:26;99772.97;;;13.44;100.00
15634;BME280;14654;48.898;8.308;2023-05-10T03:44:51;99770.34;;;13.45;100.00
15634;BME280;14654;48.898;8.308;2023-05-10T03:47:17;99776.38;;;13.46;100.00
15634;BME280;14654;48.898;8.308;2023-05-10T03:49:42;99774.59;;;13.46;100.00
15634;BME280;14654;48.898;8.308;2023-05-10T03:52:08;99773.78;;;13.46;100.00
15634;BME280;14654;48.898;8.308;2023-05-10T03:54:33;99773.78;;;13.46;100.00
15634;BME280;14654;48.898;8.308;2023-05-10T03:56:58;99775.56;;;13.44;100.00
15634;BME280;14654;48.898;8.308;2023-05-10T03:59:23;99779.84;;;13.45;100.00
15634;BME280;14654;48.898;8.308;2023-05-10T04:01:49;99771.22;;;13.44;100.00
15634;BME280;14654;48.898;8.308;2023-05-10T04:04:14;99775.53;;;13.45;100.00
15634;BME280;14654;48.898;8.308;2023-05-10T04:06:40;99772.88;;;13.47;100.00
15634;BME280;14654;48.898;8.308;2023-05-10T04:09:05;99778.88;;;13.49;100.00
15634;BME280;14654;48.898;8.308;2023-05-10T04:11:31;99781.50;;;13.47;100.00
15634;BME280;14654;48.898;8.308;2023-05-10T04:13:56;99776.28;;;13.49;100.00
15634;BME280;14654;48.898;8.308;2023-05-10T04:16:22;99781.41;;;13.52;100.00
15634;BME280;14654;48.898;8.308;2023-05-10T04:18:47;99783.09;;;13.53;100.00
15634;BME280;14654;48.898;8.308;2023-05-10T04:21:13;99782.25;;;13.52;100.00
15634;BME280;14654;48.898;8.308;2023-05-10T04:23:38;99779.56;;;13.55;100.00
15634;BME280;14654;48.898;8.308;2023-05-10T04:26:04;99792.47;;;13.59;100.00
15634;BME280;14654;48.898;8.308;2023-05-10T04:28:29;99788.09;;;13.61;100.00
15634;BME280;14654;48.898;8.308;2023-05-10T04:31:21;99792.31;;;13.63;100.00
15634;BME280;14654;48.898;8.308;2023-05-10T04:33:47;99797.47;;;13.65;100.00
15634;BME280;14654;48.898;8.308;2023-05-10T04:36:12;99798.28;;;13.67;100.00
15634;BME280;14654;48.898;8.308;2023-05-10T04:38:37;99799.00;;;13.72;100.00
15634;BME280;14654;48.898;8.308;2023-05-10T04:41:07;99792.81;;;13.76;100.00
15634;BME280;14654;48.898;8.308;2023-05-10T04:43:34;99793.59;;;13.78;100.00
15634;BME280;14654;48.898;8.308;2023-05-10T04:45:59;99803.09;;;13.81;100.00
15634;BME280;14654;48.898;8.308;2023-05-10T04:48:24;99801.28;;;13.83;100.00
15634;BME280;14654;48.898;8.308;2023-05-10T04:50:50;99806.44;;;13.84;100.00
15634;BME280;14654;48.898;8.308;2023-05-10T04:53:15;99811.53;;;13.87;100.00
15634;BME280;14654;48.898;8.308;2023-05-10T04:55:40;99806.19;;;13.92;100.00
15634;BME280;14654;48.898;8.308;2023-05-10T04:58:06;99809.56;;;13.96;100.00
15634;BME280;14654;48.898;8.308;2023-05-10T05:00:32;99811.16;;;14.00;100.00
15634;BME280;14654;48.898;8.308;2023-05-10T05:02:58;99805.00;;;14.02;100.00
15634;BME280;14654;48.898;8.308;2023-05-10T05:05:23;99797.06;;;14.07;100.00
15634;BME280;14654;48.898;8.308;2023-05-10T05:07:48;99801.28;;;14.11;100.00
15634;BME280;14654;48.898;8.308;2023-05-10T05:10:14;99796.81;;;14.15;100.00
15634;BME280;14654;48.898;8.308;2023-05-10T05:12:39;99802.69;;;14.22;100.00
15634;BME280;14654;48.898;8.308;2023-05-10T05:15:05;99808.50;;;14.30;100.00
15634;BME280;14654;48.898;8.308;2023-05-10T05:17:30;99809.97;;;14.39;100.00
15634;BME280;14654;48.898;8.308;2023-05-10T05:19:56;99808.81;;;14.47;100.00
15634;BME280;14654;48.898;8.308;2023-05-10T05:22:21;99811.91;;;14.59;100.00
15634;BME280;14654;48.898;8.308;2023-05-10T05:24:54;99800.50;;;14.63;100.00
15634;BME280;14654;48.898;8.308;2023-05-10T05:27:20;99806.44;;;14.67;100.00
15634;BME280;14654;48.898;8.308;2023-05-10T05:29:49;99804.50;;;14.73;100.00
15634;BME280;14654;48.898;8.308;2023-05-10T05:32:14;99808.75;;;14.76;100.00
15634;BME280;14654;48.898;8.308;2023-05-10T05:34:39;99811.88;;;14.87;100.00
15634;BME280;14654;48.898;8.308;2023-05-10T05:37:05;99809.00;;;14.95;100.00
15634;BME280;14654;48.898;8.308;2023-05-10T05:39:30;99808.81;;;15.00;100.00
15634;BME280;14654;48.898;8.308;2023-05-10T05:41:56;99815.41;;;15.10;100.00
15634;BME280;14654;48.898;8.308;2023-05-10T05:44:21;99818.47;;;15.21;100.00
15634;BME280;14654;48.898;8.308;2023-05-10T05:46:46;99832.94;;;15.30;100.00
15634;BME280;14654;48.898;8.308;2023-05-10T05:49:12;99839.66;;;15.37;100.00
15634;BME280;14654;48.898;8.308;2023-05-10T05:51:37;99836.03;;;15.42;100.00
15634;BME280;14654;48.898;8.308;2023-05-10T05:54:02;99844.50;;;15.47;100.00
15634;BME280;14654;48.898;8.308;2023-05-10T05:56:29;99837.38;;;15.52;100.00
15634;BME280;14654;48.898;8.308;2023-05-10T05:58:54;99849.28;;;15.59;100.00
15634;BME280;14654;48.898;8.308;2023-05-10T06:01:20;99850.69;;;15.68;100.00
15634;BME280;14654;48.898;8.308;2023-05-10T06:03:45;99846.16;;;15.73;100.00
15634;BME280;14654;48.898;8.308;2023-05-10T06:06:10;99844.47;;;15.72;100.00
15634;BME280;14654;48.898;8.308;2023-05-10T06:08:36;99852.38;;;15.70;100.00
15634;BME280;14654;48.898;8.308;2023-05-10T06:11:01;99854.19;;;15.68;100.00
15634;BME280;14654;48.898;8.308;2023-05-10T06:13:26;99855.13;;;15.66;100.00
15634;BME280;14654;48.898;8.308;2023-05-10T06:16:00;99859.44;;;15.67;100.00
15634;BME280;14654;48.898;8.308;2023-05-10T06:18:25;99857.69;;;15.67;100.00
15634;BME280;14654;48.898;8.308;2023-05-10T06:20:50;99863.00;;;15.64;100.00
15634;BME280;14654;48.898;8.308;2023-05-10T06:23:16;99860.47;;;15.63;100.00
15634;BME280;14654;48.898;8.308;2023-05-10T06:25:42;99859.59;;;15.62;100.00
15634;BME280;14654;48.898;8.308;2023-05-10T06:28:07;99864.78;;;15.64;100.00
15634;BME280;14654;48.898;8.308;2023-05-10T06:30:32;99868.34;;;15.61;100.00
15634;BME280;14654;48.898;8.308;2023-05-10T06:32:58;99868.41;;;15.60;100.00
15634;BME280;14654;48.898;8.308;2023-05-10T06:35:23;99870.09;;;15.61;100.00
15634;BME280;14654;48.898;8.308;2023-05-10T06:37:49;99872.72;;;15.61;100.00
15634;BME280;14654;48.898;8.308;2023-05-10T06:40:15;99864.78;;;15.64;100.00
15634;BME280;14654;48.898;8.308;2023-05-10T06:42:41;99872.47;;;15.67;100.00
15634;BME280;14654;48.898;8.308;2023-05-10T06:45:07;99877.31;;;15.78;100.00
15634;BME280;14654;48.898;8.308;2023-05-10T06:47:33;99880.34;;;15.91;100.00
15634;BME280;14654;48.898;8.308;2023-05-10T06:49:59;99877.34;;;16.02;100.00
15634;BME280;14654;48.898;8.308;2023-05-10T06:52:24;99882.13;;;16.12;100.00
15634;BME280;14654;48.898;8.308;2023-05-10T06:54:49;99889.31;;;16.29;100.00
15634;BME280;14654;48.898;8.308;2023-05-10T06:57:15;99890.25;;;16.49;100.00
15634;BME280;14654;48.898;8.308;2023-05-10T06:59:40;99888.38;;;16.75;100.00
15634;BME280;14654;48.898;8.308;2023-05-10T07:02:05;99886.47;;;17.01;100.00
15634;BME280;14654;48.898;8.308;2023-05-10T07:04:31;99885.16;;;17.32;100.00
15634;BME280;14654;48.898;8.308;2023-05-10T07:06:56;99887.09;;;17.47;100.00
15634;BME280;14654;48.898;8.308;2023-05-10T07:09:22;99899.19;;;17.50;100.00
15634;BME280;14654;48.898;8.308;2023-05-10T07:11:49;99893.16;;;17.48;100.00
15634;BME280;14654;48.898;8.308;2023-05-10T07:14:14;99889.25;;;17.37;100.00
15634;BME280;14654;48.898;8.308;2023-05-10T07:16:40;99895.03;;;17.25;100.00
15634;BME280;14654;48.898;8.308;2023-05-10T07:19:05;99890.34;;;17.13;100.00
15634;BME280;14654;48.898;8.308;2023-05-10T07:21:31;99914.44;;;16.99;100.00
15634;BME280;14654;48.898;8.308;2023-05-10T07:23:56;99908.84;;;16.86;100.00
15634;BME280;14654;48.898;8.308;2023-05-10T07:26:21;99896.41;;;16.70;100.00
15634;BME280;14654;48.898;8.308;2023-05-10T07:28:47;99909.19;;;16.56;100.00
15634;BME280;14654;48.898;8.308;2023-05-10T07:31:12;99908.13;;;16.38;100.00
15634;BME280;14654;48.898;8.308;2023-05-10T07:33:37;99915.53;;;16.26;100.00
15634;BME280;14654;48.898;8.308;2023-05-10T07:36:03;99917.06;;;16.32;100.00
15634;BME280;14654;48.898;8.308;2023-05-10T07:38:28;99919.06;;;16.48;100.00
15634;BME280;14654;48.898;8.308;2023-05-10T07:40:54;99919.25;;;16.65;100.00
15634;BME280;14654;48.898;8.308;2023-05-10T07:43:19;99921.16;;;16.82;100.00
15634;BME280;14654;48.898;8.308;2023-05-10T07:45:44;99909.09;;;17.02;100.00
15634;BME280;14654;48.898;8.308;2023-05-10T07:48:10;99918.81;;;17.19;100.00
15634;BME280;14654;48.898;8.308;2023-05-10T07:50:35;99921.69;;;17.33;100.00
15634;BME280;14654;48.898;8.308;2023-05-10T07:53:00;99922.22;;;17.42;100.00
15634;BME280;14654;48.898;8.308;2023-05-10T07:55:26;99921.91;;;17.49;100.00
15634;BME280;14654;48.898;8.308;2023-05-10T07:57:51;99923.47;;;17.54;100.00
15634;BME280;14654;48.898;8.308;2023-05-10T08:00:18;99915.53;;;17.55;100.00
15634;BME280;14654;48.898;8.308;2023-05-10T08:02:43;99928.88;;;17.49;100.00
15634;BME280;14654;48.898;8.308;2023-05-10T08:05:09;99924.75;;;17.43;100.00
15634;BME280;14654;48.898;8.308;2023-05-10T08:07:35;99929.88;;;17.46;100.00
15634;BME280;14654;48.898;8.308;2023-05-10T08:10:00;99930.13;;;17.61;100.00
15634;BME280;14654;48.898;8.308;2023-05-10T08:12:26;99939.06;;;17.76;100.00
15634;BME280;14654;48.898;8.308;2023-05-10T08:14:51;99919.19;;;17.91;99.67
15634;BME280;14654;48.898;8.308;2023-05-10T08:17:16;99929.25;;;18.00;99.39
15634;BME280;14654;48.898;8.308;2023-05-10T08:19:42;99930.13;;;18.20;98.64
15634;BME280;14654;48.898;8.308;2023-05-10T08:22:07;99936.69;;;18.48;96.90
15634;BME280;14654;48.898;8.308;2023-05-10T08:24:32;99938.19;;;18.71;95.39
15634;BME280;14654;48.898;8.308;2023-05-10T08:26:59;99936.63;;;18.86;94.81
15634;BME280;14654;48.898;8.308;2023-05-10T08:29:25;99927.94;;;19.03;94.95
15634;BME280;14654;48.898;8.308;2023-05-10T08:31:51;99932.41;;;19.18;93.96
15634;BME280;14654;48.898;8.308;2023-05-10T08:34:16;99935.84;;;19.37;93.20
15634;BME280;14654;48.898;8.308;2023-05-10T08:36:41;99936.03;;;19.51;92.82
15634;BME280;14654;48.898;8.308;2023-05-10T08:39:07;99931.81;;;19.64;92.41
15634;BME280;14654;48.898;8.308;2023-05-10T08:41:33;99928.53;;;19.77;91.75
15634;BME280;14654;48.898;8.308;2023-05-10T08:43:59;99927.66;;;19.94;91.30
15634;BME280;14654;48.898;8.308;2023-05-10T08:46:28;99934.41;;;20.16;90.20
15634;BME280;14654;48.898;8.308;2023-05-10T08:48:56;99933.03;;;20.40;89.63
15634;BME280;14654;48.898;8.308;2023-05-10T08:51:24;99937.47;;;20.70;88.56
15634;BME280;14654;48.898;8.308;2023-05-10T08:53:52;99936.53;;;20.88;87.96
15634;BME280;14654;48.898;8.308;2023-05-10T08:56:18;99939.75;;;20.93;87.36
15634;BME280;14654;48.898;8.308;2023-05-10T08:58:44;99935.38;;;20.93;86.47
15634;BME280;14654;48.898;8.308;2023-05-10T09:01:10;99937.06;;;20.94;86.62
15634;BME280;14654;48.898;8.308;2023-05-10T09:03:38;99936.28;;;20.92;86.79
15634;BME280;14654;48.898;8.308;2023-05-10T09:08:30;99939.44;;;20.67;87.51
15634;BME280;14654;48.898;8.308;2023-05-10T09:10:56;99946.25;;;20.55;87.53
15634;BME280;14654;48.898;8.308;2023-05-10T09:13:22;99946.75;;;20.30;87.72
15634;BME280;14654;48.898;8.308;2023-05-10T09:15:48;99956.91;;;19.88;88.28
15634;BME280;14654;48.898;8.308;2023-05-10T09:18:14;99964.50;;;19.41;89.68
15634;BME280;14654;48.898;8.308;2023-05-10T09:20:40;99967.13;;;19.06;90.96
15634;BME280;14654;48.898;8.308;2023-05-10T09:23:05;99969.44;;;18.76;92.37
15634;BME280;14654;48.898;8.308;2023-05-10T09:25:31;99973.91;;;18.54;93.50
15634;BME280;14654;48.898;8.308;2023-05-10T09:27:59;99978.81;;;18.43;94.00
15634;BME280;14654;48.898;8.308;2023-05-10T09:30:27;99978.00;;;18.42;95.16
15634;BME280;14654;48.898;8.308;2023-05-10T09:32:53;99986.41;;;18.49;95.81
15634;BME280;14654;48.898;8.308;2023-05-10T09:35:21;99987.81;;;18.56;96.87
15634;BME280;14654;48.898;8.308;2023-05-10T09:37:50;99994.56;;;18.80;96.57
15634;BME280;14654;48.898;8.308;2023-05-10T09:40:20;99992.69;;;19.20;96.44
15634;BME280;14654;48.898;8.308;2023-05-10T09:45:18;99987.53;;;19.87;95.05
15634;BME280;14654;48.898;8.308;2023-05-10T09:47:43;99987.44;;;20.22;94.00
15634;BME280;14654;48.898;8.308;2023-05-10T09:50:09;99987.97;;;20.61;93.34
15634;BME280;14654;48.898;8.308;2023-05-10T09:52:54;99991.94;;;21.00;91.35
15634;BME280;14654;48.898;8.308;2023-05-10T09:55:21;99994.09;;;21.24;89.80
15634;BME280;14654;48.898;8.308;2023-05-10T09:57:48;99988.88;;;21.39;87.87
15634;BME280;14654;48.898;8.308;2023-05-10T10:00:19;99989.81;;;21.52;86.93
15634;BME280;14654;48.898;8.308;2023-05-10T10:02:53;99992.19;;;21.57;85.47
15634;BME280;14654;48.898;8.308;2023-05-10T10:05:19;99994.16;;;21.53;83.74
15634;BME280;14654;48.898;8.308;2023-05-10T10:07:44;100001.47;;;21.48;82.72
15634;BME280;14654;48.898;8.308;2023-05-10T10:10:10;100001.75;;;21.43;81.29
15634;BME280;14654;48.898;8.308;2023-05-10T10:12:38;99998.66;;;21.51;80.88
15634;BME280;14654;48.898;8.308;2023-05-10T10:15:04;100003.97;;;21.66;80.28
15634;BME280;14654;48.898;8.308;2023-05-10T10:17:31;99997.88;;;21.80;79.45
15634;BME280;14654;48.898;8.308;2023-05-10T10:19:57;99993.75;;;21.90;78.98
15634;BME280;14654;48.898;8.308;2023-05-10T10:22:22;99986.69;;;22.05;78.78
15634;BME280;14654;48.898;8.308;2023-05-10T10:24:48;99989.69;;;22.13;78.30
15634;BME280;14654;48.898;8.308;2023-05-10T10:27:24;99991.63;;;22.24;78.07
15634;BME280;14654;48.898;8.308;2023-05-10T10:33:04;99991.66;;;22.10;78.27
15634;BME280;14654;48.898;8.308;2023-05-10T10:35:34;100000.72;;;21.76;79.19
15634;BME280;14654;48.898;8.308;2023-05-10T10:38:00;99997.47;;;21.26;80.09
15634;BME280;14654;48.898;8.308;2023-05-10T10:40:30;99998.06;;;20.69;81.60
15634;BME280;14654;48.898;8.308;2023-05-10T10:42:56;100004.03;;;20.23;83.10
15634;BME280;14654;48.898;8.308;2023-05-10T10:45:23;100000.28;;;19.95;84.06
15634;BME280;14654;48.898;8.308;2023-05-10T10:47:48;99999.44;;;19.77;84.52
15634;BME280;14654;48.898;8.308;2023-05-10T10:50:15;100004.00;;;19.73;84.59
15634;BME280;14654;48.898;8.308;2023-05-10T10:52:43;99992.84;;;19.86;84.04
15634;BME280;14654;48.898;8.308;2023-05-10T10:55:17;99995.53;;;20.02;83.61
15634;BME280;14654;48.898;8.308;2023-05-10T10:57:44;100000.31;;;20.11;82.72
15634;BME280;14654;48.898;8.308;2023-05-10T11:02:48;99989.63;;;20.14;81.96
15634;BME280;14654;48.898;8.308;2023-05-10T11:07:54;99990.75;;;20.10;80.82
15634;BME280;14654;48.898;8.308;2023-05-10T11:10:21;99997.00;;;20.07;81.05
15634;BME280;14654;48.898;8.308;2023-05-10T11:13:05;99995.13;;;20.09;80.84
15634;BME280;14654;48.898;8.308;2023-05-10T11:17:59;99990.41;;;20.16;81.03
15634;BME280;14654;48.898;8.308;2023-05-10T11:20:27;99988.38;;;20.37;81.21
15634;BME280;14654;48.898;8.308;2023-05-10T11:23:10;99990.53;;;20.47;79.99
15634;BME280;14654;48.898;8.308;2023-05-10T11:25:41;99996.13;;;20.56;80.09
15634;BME280;14654;48.898;8.308;2023-05-10T11:28:06;99993.66;;;20.53;79.63
15634;BME280;14654;48.898;8.308;2023-05-10T11:30:31;99991.63;;;20.43;79.30
15634;BME280;14654;48.898;8.308;2023-05-10T11:32:57;99995.69;;;20.48;78.29
15634;BME280;14654;48.898;8.308;2023-05-10T11:35:22;99991.00;;;20.69;77.57
15634;BME280;14654;48.898;8.308;2023-05-10T11:37:48;99992.78;;;21.01;77.06
15634;BME280;14654;48.898;8.308;2023-05-10T11:40:13;99992.78;;;21.31;74.99
15634;BME280;14654;48.898;8.308;2023-05-10T11:42:39;99998.06;;;21.46;74.12
15634;BME280;14654;48.898;8.308;2023-05-10T11:45:05;100007.88;;;21.58;74.34
15634;BME280;14654;48.898;8.308;2023-05-10T11:47:31;100002.47;;;21.76;73.95
15634;BME280;14654;48.898;8.308;2023-05-10T11:49:56;100006.75;;;21.93;73.35
15634;BME280;14654;48.898;8.308;2023-05-10T11:52:22;100001.38;;;22.09;73.01
15634;BME280;14654;48.898;8.308;2023-05-10T11:54:52;99999.47;;;22.26;71.58
15634;BME280;14654;48.898;8.308;2023-05-10T11:57:26;100004.44;;;22.30;70.63
15634;BME280;14654;48.898;8.308;2023-05-10T11:59:56;100003.69;;;22.43;70.69
15634;BME280;14654;48.898;8.308;2023-05-10T12:02:21;100003.59;;;22.59;70.24
15634;BME280;14654;48.898;8.308;2023-05-10T12:04:47;100002.03;;;22.69;69.69
15634;BME280;14654;48.898;8.308;2023-05-10T12:07:12;99999.03;;;22.75;69.52
15634;BME280;14654;48.898;8.308;2023-05-10T12:09:43;99996.00;;;22.67;69.19
15634;BME280;14654;48.898;8.308;2023-05-10T12:12:08;99994.72;;;22.60;69.06
15634;BME280;14654;48.898;8.308;2023-05-10T12:14:34;99994.81;;;22.58;68.94
15634;BME280;14654;48.898;8.308;2023-05-10T12:17:00;99996.31;;;22.62;68.77
15634;BME280;14654;48.898;8.308;2023-05-10T12:19:25;99987.03;;;22.69;68.74
15634;BME280;14654;48.898;8.308;2023-05-10T12:21:51;99995.31;;;22.78;68.22
15634;BME280;14654;48.898;8.308;2023-05-10T12:24:16;99995.88;;;22.83;67.82
15634;BME280;14654;48.898;8.308;2023-05-10T12:26:43;99995.38;;;22.91;67.98
15634;BME280;14654;48.898;8.308;2023-05-10T12:29:13;100001.09;;;22.97;67.34
15634;BME280;14654;48.898;8.308;2023-05-10T12:31:55;99991.06;;;23.03;66.84
15634;BME280;14654;48.898;8.308;2023-05-10T12:34:30;99998.16;;;23.15;66.71
15634;BME280;14654;48.898;8.308;2023-05-10T12:36:56;99998.16;;;23.15;66.15
15634;BME280;14654;48.898;8.308;2023-05-10T12:39:22;99996.25;;;23.04;66.32
15634;BME280;14654;48.898;8.308;2023-05-10T12:41:47;99999.19;;;22.99;66.69
15634;BME280;14654;48.898;8.308;2023-05-10T12:44:12;99996.78;;;22.96;66.83
15634;BME280;14654;48.898;8.308;2023-05-10T12:46:38;99987.09;;;22.82;66.13
15634;BME280;14654;48.898;8.308;2023-05-10T12:49:03;99995.25;;;22.65;67.26
15634;BME280;14654;48.898;8.308;2023-05-10T12:51:28;99986.06;;;22.58;67.63
15634;BME280;14654;48.898;8.308;2023-05-10T12:53:54;99995.00;;;22.55;67.14
15634;BME280;14654;48.898;8.308;2023-05-10T12:56:20;99995.50;;;22.47;67.41
15634;BME280;14654;48.898;8.308;2023-05-10T12:58:45;99990.31;;;22.46;67.34
15634;BME280;14654;48.898;8.308;2023-05-10T13:01:16;99988.34;;;22.49;67.34
15634;BME280;14654;48.898;8.308;2023-05-10T13:03:41;99988.44;;;22.48;67.26
15634;BME280;14654;48.898;8.308;2023-05-10T13:06:08;99979.47;;;22.50;67.21
15634;BME280;14654;48.898;8.308;2023-05-10T13:08:33;99997.38;;;22.60;66.65
15634;BME280;14654;48.898;8.308;2023-05-10T13:11:02;99991.59;;;22.67;66.58
15634;BME280;14654;48.898;8.308;2023-05-10T13:13:27;99996.47;;;22.74;66.82
15634;BME280;14654;48.898;8.308;2023-05-10T13:15:53;99987.59;;;22.75;66.46
15634;BME280;14654;48.898;8.308;2023-05-10T13:18:18;99986.78;;;22.74;66.50
15634;BME280;14654;48.898;8.308;2023-05-10T13:20:43;99988.81;;;22.83;66.95